Time;durP1;ratioP1;P1;durP2;ratioP2;P2;SDS_P1;SDS_P2;PMS_P1;PMS_P2;Temp;Humidity;BMP_temperature;BMP_pressure;BME280_temperature;BME280_humidity;BME280_pressure;Samples;Min_cycle;Max_cycle;Signal;HPM_P1;HPM_P2
2022/08/07 00:01:27;;;;;;;6.55;3.65;;;;;;;18.25;91.30;92848.84;5030495;28;20025;-73
2022/08/07 00:03:53;;;;;;;5.15;3.58;;;;;;;18.27;95.18;92849.31;5031779;28;20029;-73
2022/08/07 00:06:18;;;;;;;6.95;3.78;;;;;;;18.21;95.57;92848.72;5030433;28;20419;-73
2022/08/07 00:08:44;;;;;;;10.30;4.05;;;;;;;18.19;94.32;92840.31;5030188;28;20049;-73
2022/08/07 00:11:10;;;;;;;6.03;3.83;;;;;;;18.15;92.81;92830.69;5031972;28;20029;-73
2022/08/07 00:13:36;;;;;;;7.85;3.78;;;;;;;18.12;93.20;92834.75;5029869;28;20060;-73
2022/08/07 00:16:04;;;;;;;7.85;4.03;;;;;;;18.09;93.06;92824.81;5031588;28;20091;-73
2022/08/07 00:18:30;;;;;;;6.15;3.92;;;;;;;18.09;93.94;92820.31;5028837;28;20044;-73
2022/08/07 00:20:58;;;;;;;6.38;3.95;;;;;;;18.12;95.95;92820.75;5031949;28;20318;-73
2022/08/07 00:23:24;;;;;;;9.20;4.60;;;;;;;18.09;93.50;92814.22;5030026;28;20116;-73
2022/08/07 00:25:50;;;;;;;7.68;4.63;;;;;;;18.09;92.96;92811.59;5031549;28;20101;-73
2022/08/07 00:28:16;;;;;;;6.63;4.30;;;;;;;18.09;93.87;92801.00;5032044;28;20041;-73
2022/08/07 00:30:41;;;;;;;7.72;4.57;;;;;;;18.06;97.05;92791.81;4994452;28;20554;-73
2022/08/07 00:33:07;;;;;;;11.55;4.65;;;;;;;18.07;94.82;92785.41;5010420;28;20073;-73
2022/08/07 00:35:33;;;;;;;7.65;5.00;;;;;;;18.07;94.70;92788.06;5011430;28;20048;-73
2022/08/07 00:37:59;;;;;;;8.07;4.93;;;;;;;18.08;94.41;92780.88;5010206;28;20030;-73
2022/08/07 00:40:26;;;;;;;9.73;4.97;;;;;;;18.06;93.90;92791.81;5012409;28;20416;-72
2022/08/07 00:42:51;;;;;;;7.88;4.70;;;;;;;18.07;92.85;92787.28;5010052;28;20099;-73
2022/08/07 00:45:17;;;;;;;9.23;4.88;;;;;;;18.05;93.33;92777.00;5009974;28;20041;-73
2022/08/07 00:47:42;;;;;;;9.48;5.65;;;;;;;18.03;93.06;92773.91;5009928;28;20045;-73
2022/08/07 00:50:08;;;;;;;9.88;5.25;;;;;;;18.05;92.42;92784.97;5012426;28;20029;-72
2022/08/07 00:52:34;;;;;;;10.32;4.85;;;;;;;18.05;91.04;92779.66;5008877;28;20030;-72
2022/08/07 00:55:00;;;;;;;8.82;5.18;;;;;;;18.05;91.06;92782.31;5009732;28;20135;-73
2022/08/07 00:57:25;;;;;;;8.25;5.00;;;;;;;18.05;91.11;92782.31;5009702;28;20033;-72
2022/08/07 00:59:52;;;;;;;13.40;5.10;;;;;;;18.08;90.84;92789.63;5011979;28;20029;-73
2022/08/07 01:02:18;;;;;;;8.38;5.13;;;;;;;18.10;89.80;92798.03;5010133;28;20041;-73
2022/08/07 01:04:44;;;;;;;7.75;5.03;;;;;;;18.14;91.17;92792.06;5010908;28;20034;-73
2022/08/07 01:07:12;;;;;;;7.85;5.18;;;;;;;18.17;91.01;92794.06;5010888;28;20404;-73
2022/08/07 01:09:37;;;;;;;8.95;5.53;;;;;;;18.14;91.86;92802.66;5010698;28;20484;-72
2022/08/07 01:12:04;;;;;;;14.02;5.78;;;;;;;18.17;89.69;92807.31;5012047;28;20049;-73
2022/08/07 01:14:30;;;;;;;7.85;4.82;;;;;;;18.18;87.16;92808.88;5009534;28;20022;-72
2022/08/07 01:16:57;;;;;;;7.90;5.20;;;;;;;18.21;86.44;92816.16;4993487;28;20041;-73
2022/08/07 01:19:25;;;;;;;7.63;5.25;;;;;;;18.21;86.54;92810.84;4993571;28;20042;-73
2022/08/07 01:21:54;;;;;;;8.43;5.60;;;;;;;18.19;86.70;92803.22;5010671;28;20032;-73
2022/08/07 01:24:21;;;;;;;11.32;5.82;;;;;;;18.20;90.11;92807.44;5009793;28;20038;-73
2022/08/07 01:26:49;;;;;;;8.73;5.47;;;;;;;18.22;90.39;92801.81;5009331;28;20176;-72
2022/08/07 01:29:15;;;;;;;12.20;6.13;;;;;;;18.20;92.98;92806.66;4993296;28;20033;-73
2022/08/07 01:31:41;;;;;;;11.15;5.93;;;;;;;18.18;90.95;92804.34;5010347;28;20068;-72
2022/08/07 01:34:08;;;;;;;15.65;6.82;;;;;;;18.17;89.89;92804.66;5009623;28;20392;-73
2022/08/07 01:36:38;;;;;;;14.48;5.90;;;;;;;18.17;89.50;92794.84;5009632;28;20424;-72
2022/08/07 01:39:11;;;;;;;13.05;6.85;;;;;;;18.11;91.63;92788.19;4994120;28;20096;-72
2022/08/07 01:41:42;;;;;;;10.07;6.38;;;;;;;18.16;90.80;92789.88;5010705;28;20061;-72
2022/08/07 01:44:10;;;;;;;10.07;6.65;;;;;;;18.14;90.59;92781.47;5009371;28;20069;-73
2022/08/07 01:46:38;;;;;;;11.80;7.00;;;;;;;18.15;90.49;92790.94;5009002;28;20046;-72
2022/08/07 01:49:04;;;;;;;11.15;6.53;;;;;;;18.10;92.97;92787.44;5009376;28;20066;-72
2022/08/07 01:51:31;;;;;;;12.32;6.72;;;;;;;18.06;92.18;92781.22;5010387;28;20046;-72
2022/08/07 01:54:01;;;;;;;11.13;6.28;;;;;;;18.05;91.64;92779.66;5010432;28;20053;-73
2022/08/07 01:56:41;;;;;;;12.10;6.78;;;;;;;18.06;92.41;92785.75;5009432;28;20037;-73
2022/08/07 01:59:13;;;;;;;12.02;7.40;;;;;;;18.07;92.91;92782.00;5009256;28;20057;-72
2022/08/07 02:01:42;;;;;;;12.90;6.35;;;;;;;18.06;91.72;92780.47;5009051;28;20080;-72
2022/08/07 02:04:16;;;;;;;12.88;6.28;;;;;;;18.07;90.93;92782.75;5012690;28;20077;-73
2022/08/07 02:06:46;;;;;;;14.45;6.35;;;;;;;18.09;89.78;92782.44;4997059;28;20051;-73
2022/08/07 02:09:17;;;;;;;10.48;6.40;;;;;;;18.13;89.34;92791.28;5014242;28;20041;-73
2022/08/07 02:11:47;;;;;;;11.40;6.47;;;;;;;18.17;91.90;92794.06;5012729;28;20500;-73
2022/08/07 02:14:16;;;;;;;12.02;7.03;;;;;;;18.18;91.77;92793.75;5004468;28;20062;-73
2022/08/07 02:16:44;;;;;;;15.35;6.30;;;;;;;18.18;91.38;92795.63;4996237;28;20037;-72
2022/08/07 02:19:12;;;;;;;14.07;6.45;;;;;;;18.17;90.14;92791.41;5012800;28;20026;-73
2022/08/07 02:21:39;;;;;;;9.57;5.88;;;;;;;18.17;89.85;92797.50;5029245;28;20068;-73
2022/08/07 02:24:06;;;;;;;14.35;6.90;;;;;;;18.21;93.17;92797.59;5018662;28;20036;-73
2022/08/07 02:26:34;;;;;;;13.15;6.40;;;;;;;18.17;92.38;92796.69;5032195;28;20048;-73
2022/08/07 02:29:06;;;;;;;11.85;6.38;;;;;;;18.14;91.19;92789.41;5031979;28;20025;-73
2022/08/07 02:31:32;;;;;;;11.20;6.78;;;;;;;18.10;91.02;92798.03;5052281;28;20095;-73
2022/08/07 02:34:03;;;;;;;14.32;6.18;;;;;;;18.07;90.80;92793.34;5050518;28;20029;-73
2022/08/07 02:36:31;;;;;;;12.03;6.33;;;;;;;18.05;91.02;92795.56;4996206;28;20030;-73
2022/08/07 02:39:03;;;;;;;10.35;6.25;;;;;;;18.03;90.89;92791.69;5012433;28;20414;-72
2022/08/07 02:41:30;;;;;;;13.60;6.60;;;;;;;18.03;90.14;92792.44;4996123;28;20052;-72
2022/08/07 02:43:59;;;;;;;10.10;6.47;;;;;;;18.04;88.45;92788.72;5012189;28;20080;-73
2022/08/07 02:46:27;;;;;;;15.15;7.00;;;;;;;18.07;87.96;92790.72;4997011;28;20112;-72
2022/08/07 02:48:54;;;;;;;13.00;7.05;;;;;;;18.09;87.79;92782.44;5012197;28;20041;-73
2022/08/07 02:51:21;;;;;;;14.70;6.65;;;;;;;18.11;88.30;92788.19;5012481;28;20038;-73
2022/08/07 02:53:53;;;;;;;13.00;6.90;;;;;;;18.12;91.19;92786.31;5011740;28;20254;-73
2022/08/07 02:56:21;;;;;;;11.00;6.25;;;;;;;18.12;92.36;92788.97;4997656;28;20057;-73
2022/08/07 02:58:50;;;;;;;11.93;7.28;;;;;;;18.07;93.40;92782.75;5011808;28;20030;-73
2022/08/07 03:01:18;;;;;;;15.70;6.63;;;;;;;18.05;93.72;92790.25;5012128;28;20030;-73
2022/08/07 03:03:46;;;;;;;15.05;7.60;;;;;;;18.02;93.48;92782.97;5011735;28;20100;-73
2022/08/07 03:06:14;;;;;;;16.13;6.55;;;;;;;17.99;91.95;92786.28;5000178;28;20061;-73
2022/08/07 03:08:41;;;;;;;12.60;6.72;;;;;;;17.97;90.86;92780.53;5011788;28;20041;-72
2022/08/07 03:11:07;;;;;;;11.40;6.60;;;;;;;17.97;91.00;92783.19;5011867;28;20046;-73
2022/08/07 03:13:37;;;;;;;16.40;6.45;;;;;;;18.01;92.88;92784.09;5011524;28;20404;-72
2022/08/07 03:16:03;;;;;;;15.07;5.97;;;;;;;18.04;90.89;92780.78;5011828;28;20108;-73
2022/08/07 03:18:30;;;;;;;13.48;6.75;;;;;;;18.01;89.76;92778.78;4995597;28;20064;-73
2022/08/07 03:20:56;;;;;;;12.40;6.53;;;;;;;18.01;89.55;92781.44;5011403;28;20096;-73
2022/08/07 03:23:23;;;;;;;12.02;6.78;;;;;;;18.02;88.95;92782.19;5013085;28;20036;-73
2022/08/07 03:25:50;;;;;;;11.50;6.50;;;;;;;18.02;88.80;92777.66;5011276;28;20038;-73
2022/08/07 03:28:18;;;;;;;16.58;6.63;;;;;;;18.04;89.47;92782.66;4996551;28;20136;-73
2022/08/07 03:30:45;;;;;;;11.65;6.80;;;;;;;18.04;89.27;92783.41;5011886;28;20370;-73
2022/08/07 03:33:13;;;;;;;12.77;6.45;;;;;;;18.07;90.84;92777.47;4995167;28;20430;-73
2022/08/07 03:35:40;;;;;;;11.77;6.53;;;;;;;18.08;89.61;92792.28;5011129;28;20038;-73
2022/08/07 03:38:08;;;;;;;14.32;7.57;;;;;;;18.09;89.04;92791.16;5012495;28;20118;-73
2022/08/07 03:40:35;;;;;;;11.30;7.20;;;;;;;18.08;88.15;92788.81;5011376;28;20048;-73
2022/08/07 03:43:02;;;;;;;14.13;6.70;;;;;;;18.09;88.30;92785.88;5011028;28;20211;-72
2022/08/07 03:45:32;;;;;;;13.63;6.40;;;;;;;18.12;88.45;92795.03;5011119;28;20042;-73
2022/08/07 03:48:06;;;;;;;14.38;6.70;;;;;;;18.10;87.58;92795.38;5012449;28;20069;-73
2022/08/07 03:50:33;;;;;;;19.60;7.15;;;;;;;18.12;87.88;92799.56;4994935;28;20038;-73
2022/08/07 03:53:00;;;;;;;15.90;6.50;;;;;;;18.13;87.57;92803.78;4994381;28;20038;-73
2022/08/07 03:55:28;;;;;;;14.00;6.82;;;;;;;18.12;88.28;92799.56;5010940;28;20056;-73
2022/08/07 03:57:56;;;;;;;13.40;6.53;;;;;;;18.08;88.54;92794.91;5011966;28;20062;-73
2022/08/07 04:00:23;;;;;;;13.35;6.65;;;;;;;18.08;88.28;92794.91;5010899;28;20030;-73
2022/08/07 04:02:51;;;;;;;19.40;8.15;;;;;;;18.07;90.29;92788.06;4994682;28;20064;-73
2022/08/07 04:05:24;;;;;;;12.82;6.80;;;;;;;18.06;90.04;92791.81;5010825;28;20068;-73
2022/08/07 04:07:50;;;;;;;11.80;7.18;;;;;;;18.05;89.86;92795.56;5011287;28;20471;-72
2022/08/07 04:10:20;;;;;;;12.98;6.65;;;;;;;18.07;89.74;92787.28;4995063;28;20034;-73
2022/08/07 04:12:48;;;;;;;14.43;7.15;;;;;;;18.06;88.60;92797.13;5010635;28;20048;-73
2022/08/07 04:15:15;;;;;;;15.90;6.70;;;;;;;18.07;87.32;92795.25;5010502;28;20042;-73
2022/08/07 04:17:43;;;;;;;10.82;6.85;;;;;;;18.07;87.35;92801.31;5010593;28;20416;-73
2022/08/07 04:20:10;;;;;;;14.52;6.50;;;;;;;18.06;87.74;92802.41;5013228;28;20060;-73
2022/08/07 04:22:38;;;;;;;15.20;6.97;;;;;;;18.07;87.90;92803.19;5013935;28;20300;-73
2022/08/07 04:25:05;;;;;;;12.60;6.85;;;;;;;18.06;88.30;92802.41;5030123;28;20411;-73
2022/08/07 04:27:32;;;;;;;15.20;6.68;;;;;;;18.05;87.87;92811.44;5029661;28;20036;-73
2022/08/07 04:29:58;;;;;;;12.05;6.40;;;;;;;18.06;87.71;92813.00;5028071;28;20511;-73
2022/08/07 04:32:26;;;;;;;14.90;7.22;;;;;;;18.08;87.98;92815.31;5049858;28;20095;-73
2022/08/07 04:34:52;;;;;;;10.73;6.63;;;;;;;18.09;88.25;92812.34;5033277;28;20037;-73
2022/08/07 04:37:18;;;;;;;12.32;7.10;;;;;;;18.12;87.92;92815.44;5049878;28;20483;-73
2022/08/07 04:39:45;;;;;;;11.75;7.05;;;;;;;18.11;88.47;92822.63;5013196;28;20104;-73
2022/08/07 04:42:11;;;;;;;13.25;7.13;;;;;;;18.10;88.43;92824.50;5010071;28;20034;-73
2022/08/07 04:44:38;;;;;;;13.68;7.55;;;;;;;18.07;89.02;92827.78;5010091;28;20065;-73
2022/08/07 04:47:15;;;;;;;12.10;6.60;;;;;;;18.10;88.32;92834.31;5009774;28;20450;-73
2022/08/07 04:49:58;;;;;;;18.67;6.65;;;;;;;18.13;88.85;92832.91;5017476;28;20065;-73
2022/08/07 04:52:53;;;;;;;20.02;7.30;;;;;;;18.15;89.43;92838.63;5029808;28;20095;-72
2022/08/07 04:55:42;;;;;;;12.10;6.65;;;;;;;18.14;89.65;92847.69;5029648;28;20033;-73
2022/08/07 04:58:35;;;;;;;13.98;6.97;;;;;;;18.14;89.50;92850.34;5029456;28;20120;-73
2022/08/07 05:01:36;;;;;;;14.27;7.25;;;;;;;18.17;88.91;92850.50;5012705;28;20095;-72
2022/08/07 05:04:17;;;;;;;16.00;7.90;;;;;;;18.20;89.11;92844.53;5029335;28;20037;-73
2022/08/07 05:06:52;;;;;;;12.82;6.93;;;;;;;18.27;89.08;92849.31;5029468;28;20507;-73
2022/08/07 05:09:50;;;;;;;16.17;7.10;;;;;;;18.29;88.54;92847.88;5029357;28;20065;-73
2022/08/07 05:12:27;;;;;;;15.35;7.13;;;;;;;18.34;88.50;92854.84;5006222;28;20049;-73
2022/08/07 05:15:01;;;;;;;12.57;6.95;;;;;;;18.38;88.12;92858.41;5009750;28;20038;-73
2022/08/07 05:17:45;;;;;;;15.52;7.10;;;;;;;18.42;87.65;92851.38;5009523;28;20047;-73
2022/08/07 05:20:15;;;;;;;15.27;7.03;;;;;;;18.46;87.72;92856.78;5009880;28;20103;-73
2022/08/07 05:22:44;;;;;;;13.93;7.03;;;;;;;18.48;88.63;92860.66;5029376;28;20040;-73
2022/08/07 05:25:13;;;;;;;12.95;7.10;;;;;;;18.50;88.42;92858.44;5012734;28;20371;-73
2022/08/07 05:27:41;;;;;;;16.15;7.30;;;;;;;18.55;88.84;92854.03;5029287;28;20060;-73
2022/08/07 05:30:08;;;;;;;16.35;7.15;;;;;;;18.59;90.58;92854.94;5028924;28;20590;-73
2022/08/07 05:32:34;;;;;;;16.50;8.00;;;;;;;18.65;89.91;92858.94;5027532;28;20373;-73
2022/08/07 05:35:01;;;;;;;14.73;7.43;;;;;;;18.69;89.58;92859.84;5030404;28;20499;-73
2022/08/07 05:37:28;;;;;;;18.45;8.88;;;;;;;18.75;89.43;92857.75;5012939;28;20403;-73
2022/08/07 05:39:59;;;;;;;15.02;7.13;;;;;;;18.80;88.30;92847.75;5031669;28;20026;-73
2022/08/07 05:42:25;;;;;;;14.00;7.50;;;;;;;18.86;87.54;92843.78;5022742;28;20419;-73
2022/08/07 05:44:51;;;;;;;14.20;7.53;;;;;;;18.95;87.85;92840.25;5013422;28;20120;-73
2022/08/07 05:47:18;;;;;;;14.70;7.75;;;;;;;19.05;87.31;92840.63;5013520;28;20501;-73
2022/08/07 05:49:50;;;;;;;13.05;7.03;;;;;;;19.09;86.77;92835.41;4997554;28;20109;-73
2022/08/07 05:52:18;;;;;;;12.75;7.00;;;;;;;19.21;85.66;92838.09;5014630;28;20124;-73
2022/08/07 05:54:44;;;;;;;14.70;7.20;;;;;;;19.28;85.65;92843.63;5014792;28;20097;-73
2022/08/07 05:57:13;;;;;;;14.02;8.30;;;;;;;19.35;86.70;92846.50;4997427;28;20416;-73
2022/08/07 05:59:41;;;;;;;15.15;8.15;;;;;;;19.45;86.44;92847.16;5013824;28;20471;-73
2022/08/07 06:02:12;;;;;;;16.83;7.63;;;;;;;19.56;86.46;92845.59;5014208;28;20377;-73
2022/08/07 06:04:44;;;;;;;16.38;7.00;;;;;;;19.65;81.67;92840.94;5013554;28;20091;-73
2022/08/07 06:07:10;;;;;;;13.40;7.30;;;;;;;19.91;78.81;92834.53;5014448;28;20033;-73
2022/08/07 06:09:39;;;;;;;27.38;7.90;;;;;;;20.08;84.14;92841.44;5013360;28;20455;-73
2022/08/07 06:12:06;;;;;;;17.55;8.25;;;;;;;20.26;nan;92837.41;5015395;28;20200;-73
2022/08/07 06:14:32;;;;;;;15.50;7.68;;;;;;;20.38;82.79;92836.63;5020097;28;20045;-74
2022/08/07 06:17:03;;;;;;;16.75;7.57;;;;;;;20.47;82.07;92833.81;5034448;28;20021;-73
2022/08/07 06:19:32;;;;;;;16.42;7.45;;;;;;;20.54;81.95;92842.75;4998187;28;20038;-74
2022/08/07 06:21:59;;;;;;;15.40;8.40;;;;;;;20.64;82.32;92835.41;5010378;28;20037;-74
2022/08/07 06:24:25;;;;;;;15.27;7.75;;;;;;;20.72;81.68;92837.16;5022398;28;20083;-73
2022/08/07 06:26:52;;;;;;;15.93;7.68;;;;;;;21.18;78.69;92834.88;5019391;28;20500;-75
2022/08/07 06:29:17;;;;;;;14.10;7.97;;;;;;;21.70;76.10;92835.72;5031156;28;20041;-77
2022/08/07 06:31:43;;;;;;;15.48;7.43;;;;;;;22.25;74.21;92825.88;5013807;28;20466;-77
2022/08/07 06:34:08;;;;;;;13.13;7.15;;;;;;;22.40;71.99;92834.91;5024701;28;20540;-77
2022/08/07 06:36:34;;;;;;;13.27;7.30;;;;;;;22.06;67.99;92831.91;5025201;28;20045;-77
2022/08/07 06:39:00;;;;;;;18.67;10.73;;;;;;;22.09;68.24;92825.91;5028114;28;20036;-77
2022/08/07 06:41:37;;;;;;;16.63;7.70;;;;;;;22.44;65.35;92828.53;5028438;28;20044;-77
2022/08/07 06:44:05;;;;;;;14.45;7.45;;;;;;;22.83;65.59;92825.84;5024384;28;20033;-76
2022/08/07 06:46:32;;;;;;;14.25;6.75;;;;;;;23.17;65.45;92830.59;5031398;28;20025;-76
2022/08/07 06:48:59;;;;;;;15.00;7.30;;;;;;;23.61;63.24;92830.16;4995386;28;20034;-75
2022/08/07 06:51:30;;;;;;;22.08;7.82;;;;;;;23.35;64.00;92831.69;5013058;28;20029;-73
2022/08/07 06:54:02;;;;;;;16.60;7.75;;;;;;;23.31;66.49;92832.75;5014699;28;20271;-72
2022/08/07 06:56:39;;;;;;;11.70;7.60;;;;;;;23.61;65.09;92830.16;5020230;28;20100;-73
2022/08/07 06:59:18;;;;;;;13.52;7.32;;;;;;;23.28;66.07;92834.22;5031701;28;20120;-73
2022/08/07 07:01:49;;;;;;;15.15;7.30;;;;;;;23.32;64.37;92827.03;5031836;28;20037;-73
2022/08/07 07:04:15;;;;;;;15.75;7.85;;;;;;;23.20;66.84;92827.25;5031548;28;20033;-73
2022/08/07 07:06:43;;;;;;;14.18;7.32;;;;;;;23.29;64.91;92822.44;5013519;28;20029;-73
2022/08/07 07:09:17;;;;;;;15.02;7.30;;;;;;;23.07;66.77;92821.31;5031708;28;20039;-73
2022/08/07 07:12:06;;;;;;;15.95;8.13;;;;;;;22.69;69.41;92824.78;5015418;28;20041;-73
2022/08/07 07:14:40;;;;;;;12.85;6.97;;;;;;;22.68;69.31;92813.34;5015354;28;20130;-72
2022/08/07 07:17:12;;;;;;;11.43;7.03;;;;;;;22.63;64.00;92821.66;5030999;28;20036;-73
2022/08/07 07:19:44;;;;;;;20.70;7.97;;;;;;;22.34;66.61;92815.00;5031630;28;20043;-73
2022/08/07 07:22:10;;;;;;;19.02;8.65;;;;;;;22.28;68.60;92816.41;5032554;28;20037;-73
2022/08/07 07:24:38;;;;;;;18.58;7.97;;;;;;;22.28;67.90;92816.41;5032587;28;20594;-73
2022/08/07 07:27:06;;;;;;;12.93;7.45;;;;;;;22.23;67.70;92815.56;5029614;28;20051;-73
2022/08/07 07:29:36;;;;;;;16.15;8.13;;;;;;;22.28;67.69;92811.06;5032896;28;20037;-73
2022/08/07 07:32:07;;;;;;;20.58;8.35;;;;;;;22.40;66.09;92810.91;5032559;28;20044;-72
2022/08/07 07:34:35;;;;;;;14.30;8.13;;;;;;;22.56;62.67;92816.16;5015235;28;20029;-73
2022/08/07 07:37:03;;;;;;;24.30;7.70;;;;;;;22.63;65.26;92803.75;5030412;28;20068;-73
2022/08/07 07:39:31;;;;;;;13.77;8.25;;;;;;;22.87;65.16;92809.88;5032357;28;20538;-73
2022/08/07 07:42:00;;;;;;;16.23;8.25;;;;;;;23.17;63.47;92806.56;5031040;28;20481;-72
2022/08/07 07:44:27;;;;;;;10.57;6.93;;;;;;;23.19;63.50;92801.66;5032204;28;20041;-73
2022/08/07 07:46:55;;;;;;;13.98;7.68;;;;;;;23.20;62.71;92811.97;5030382;28;20557;-72
2022/08/07 07:49:23;;;;;;;18.73;7.70;;;;;;;23.28;62.66;92807.50;5030880;28;20444;-73
2022/08/07 07:51:51;;;;;;;15.40;7.35;;;;;;;23.22;63.70;92806.28;5030718;28;20048;-72
2022/08/07 07:54:18;;;;;;;15.85;7.75;;;;;;;23.51;61.09;92801.38;5031661;28;20080;-73
2022/08/07 07:56:46;;;;;;;15.38;7.65;;;;;;;23.50;61.91;92803.28;5032010;28;20116;-73
2022/08/07 07:59:12;;;;;;;14.23;7.60;;;;;;;23.47;61.91;92802.09;5019107;28;20026;-73
2022/08/07 08:01:43;;;;;;;16.35;8.32;;;;;;;23.52;63.96;92806.38;5011611;28;20044;-72
2022/08/07 08:04:11;;;;;;;19.02;6.97;;;;;;;23.51;62.43;92804.03;4994810;28;20038;-72
2022/08/07 08:06:42;;;;;;;12.98;7.82;;;;;;;23.29;62.29;92801.06;5012251;28;20065;-72
2022/08/07 08:09:08;;;;;;;14.05;8.15;;;;;;;23.18;68.21;92802.78;5010707;28;20042;-72
2022/08/07 08:11:35;;;;;;;16.48;8.68;;;;;;;23.06;69.30;92807.19;5011883;28;20038;-73
2022/08/07 08:14:00;;;;;;;16.05;9.00;;;;;;;23.01;69.21;92804.81;5012278;28;20129;-72
2022/08/07 08:16:53;;;;;;;19.70;8.73;;;;;;;22.73;71.51;92809.63;5009356;28;20120;-72
2022/08/07 08:19:24;;;;;;;19.80;9.40;;;;;;;22.84;70.00;92810.59;5029520;28;20041;-72
2022/08/07 08:27:26;;;;;;;16.67;8.23;;;;;;;22.79;64.44;92808.97;5025997;28;20192;-72
2022/08/07 08:29:57;;;;;;;17.45;9.30;;;;;;;22.77;65.23;92813.13;5011744;28;20554;-72
2022/08/07 08:32:26;;;;;;;14.60;8.35;;;;;;;22.71;66.43;92814.53;5023936;28;20033;-72
2022/08/07 08:34:53;;;;;;;18.40;9.90;;;;;;;22.62;67.78;92817.44;5049919;28;20072;-73
2022/08/07 08:37:20;;;;;;;17.35;9.00;;;;;;;22.89;68.88;92820.97;5021082;28;20396;-72
2022/08/07 08:39:48;;;;;;;13.18;8.27;;;;;;;23.22;65.09;92812.41;5011411;28;20105;-72
2022/08/07 08:42:38;;;;;;;16.65;9.43;;;;;;;23.47;67.77;92818.13;5011250;28;20627;-73
2022/08/07 08:45:19;;;;;;;17.92;8.75;;;;;;;23.72;68.05;92825.75;5011653;28;20033;-72
2022/08/07 08:48:15;;;;;;;14.18;8.43;;;;;;;23.94;63.01;92818.06;5012181;28;20030;-73
2022/08/07 08:50:51;;;;;;;16.70;8.20;;;;;;;24.05;59.51;92824.31;5011290;28;20034;-72
2022/08/07 08:53:25;;;;;;;17.73;8.30;;;;;;;24.10;58.92;92821.34;5009687;28;20038;-72
2022/08/07 08:55:56;;;;;;;12.77;6.78;;;;;;;24.06;54.32;92820.50;5011122;28;20080;-72
2022/08/07 08:58:40;;;;;;;11.57;6.82;;;;;;;24.28;55.35;92822.31;5024404;28;20087;-72
2022/08/07 09:01:16;;;;;;;15.63;7.45;;;;;;;24.53;56.10;92821.88;5030802;28;20159;-73
2022/08/07 09:03:58;;;;;;;12.40;8.32;;;;;;;24.81;55.26;92820.63;5029651;28;20524;-73
2022/08/07 09:07:09;;;;;;;13.70;8.10;;;;;;;24.73;60.76;92817.88;5030708;28;20040;-73
2022/08/07 09:09:44;;;;;;;25.80;9.27;;;;;;;24.92;59.09;92814.25;5006999;28;20380;-73
2022/08/07 09:12:13;;;;;;;16.98;8.93;;;;;;;25.34;61.32;92812.34;5029213;28;20041;-72
2022/08/07 09:14:58;;;;;;;17.02;9.52;;;;;;;25.34;59.90;92801.63;5029942;28;20491;-73
2022/08/07 09:17:48;;;;;;;19.90;9.07;;;;;;;24.94;60.88;92803.94;5030387;28;20041;-73
2022/08/07 09:20:25;;;;;;;19.52;8.98;;;;;;;25.09;60.23;92802.16;5010834;28;20080;-73
2022/08/07 09:22:59;;;;;;;19.98;9.57;;;;;;;24.48;61.67;92800.81;5010831;28;20038;-73
2022/08/07 09:25:41;;;;;;;13.52;8.23;;;;;;;24.29;63.17;92799.78;5010918;28;20030;-73
2022/08/07 09:28:11;;;;;;;18.00;9.55;;;;;;;24.11;62.10;92806.81;5011528;28;20386;-73
2022/08/07 09:30:42;;;;;;;17.65;9.02;;;;;;;23.88;63.66;92807.66;5029413;28;20455;-73
2022/08/07 09:33:14;;;;;;;16.92;9.57;;;;;;;23.90;64.66;92800.06;5029086;28;20084;-73
2022/08/07 09:36:10;;;;;;;18.70;9.50;;;;;;;24.15;62.54;92804.19;5029124;28;20128;-73
2022/08/07 09:38:54;;;;;;;12.35;7.38;;;;;;;24.72;60.28;92800.31;5030528;28;20361;-73
2022/08/07 09:41:37;;;;;;;15.88;8.00;;;;;;;25.12;59.87;92795.31;5028923;28;20041;-73
2022/08/07 09:44:18;;;;;;;13.40;7.45;;;;;;;25.34;59.42;92797.03;5030487;28;20040;-73
2022/08/07 09:46:44;;;;;;;13.50;8.38;;;;;;;25.01;58.11;92797.88;5029068;28;20063;-73
2022/08/07 09:49:32;;;;;;;13.73;8.75;;;;;;;25.37;55.83;92800.88;5028695;28;20037;-73
2022/08/07 09:52:12;;;;;;;15.70;8.55;;;;;;;25.05;55.51;92796.00;5017456;28;20113;-73
2022/08/07 09:54:50;;;;;;;14.35;7.80;;;;;;;25.26;57.08;92792.00;5010334;28;20046;-73
2022/08/07 09:57:28;;;;;;;13.60;8.50;;;;;;;25.22;56.40;92789.31;5010293;28;20092;-73
2022/08/07 10:00:15;;;;;;;15.40;8.10;;;;;;;25.16;59.45;92792.66;5010522;28;20030;-73
2022/08/07 10:03:03;;;;;;;11.85;7.60;;;;;;;25.57;59.34;92792.63;5011750;28;20037;-73
2022/08/07 10:05:37;;;;;;;17.30;8.32;;;;;;;25.43;55.93;92791.38;5010282;28;20455;-73
2022/08/07 10:08:24;;;;;;;14.07;8.15;;;;;;;25.74;55.55;92789.28;5010386;28;20037;-74
2022/08/07 10:11:19;;;;;;;14.45;8.95;;;;;;;25.34;55.45;92793.59;5010531;28;20080;-73
2022/08/07 10:13:53;;;;;;;11.48;7.65;;;;;;;25.25;55.01;92790.47;5011367;28;20418;-73
2022/08/07 10:16:41;;;;;;;13.02;7.72;;;;;;;25.30;55.05;92790.88;5028630;28;20087;-73
2022/08/07 10:19:10;;;;;;;14.88;8.40;;;;;;;25.17;54.07;92791.50;5030075;28;20487;-73
2022/08/07 10:21:54;;;;;;;13.38;7.80;;;;;;;25.37;53.13;92790.16;5029933;28;20029;-74
2022/08/07 10:24:50;;;;;;;13.43;8.00;;;;;;;25.67;54.45;92779.28;5009914;28;20030;-73
2022/08/07 10:27:24;;;;;;;11.57;8.00;;;;;;;25.78;55.10;92776.66;5012514;28;20050;-73
2022/08/07 10:30:08;;;;;;;12.13;8.18;;;;;;;25.99;52.42;92777.97;5013887;28;20038;-73
2022/08/07 10:32:48;;;;;;;14.55;8.05;;;;;;;26.10;53.71;92770.75;5015908;28;20041;-73
2022/08/07 10:35:32;;;;;;;14.27;7.68;;;;;;;26.05;50.75;92768.41;5029026;28;20069;-73
2022/08/07 10:38:28;;;;;;;14.30;8.52;;;;;;;25.98;51.21;92752.28;5013712;28;20195;-73
2022/08/07 10:41:40;;;;;;;18.67;8.70;;;;;;;26.00;51.22;92761.47;5013777;28;20069;-73
2022/08/07 10:44:39;;;;;;;17.27;8.23;;;;;;;25.91;52.42;92758.38;5004842;28;20045;-74
2022/08/07 10:47:11;;;;;;;14.77;8.88;;;;;;;25.49;51.95;92760.41;5024964;28;20029;-77
2022/08/07 10:49:47;;;;;;;10.05;7.00;;;;;;;25.24;52.19;92760.25;5033141;28;20185;-77
2022/08/07 10:52:32;;;;;;;15.32;7.50;;;;;;;25.12;54.63;92763.16;5014111;28;20042;-77
2022/08/07 10:55:17;;;;;;;11.38;6.57;;;;;;;25.12;53.35;92757.81;5025138;28;20038;-77
2022/08/07 10:58:01;;;;;;;11.77;7.10;;;;;;;25.20;49.33;92753.31;5017617;28;20037;-77
2022/08/07 11:00:34;;;;;;;16.42;9.00;;;;;;;25.81;52.29;92751.78;5030674;28;20073;-77
2022/08/07 11:03:13;;;;;;;9.27;6.28;;;;;;;25.91;46.36;92743.03;5030857;28;20040;-77
2022/08/07 11:05:44;;;;;;;12.18;6.70;;;;;;;25.95;48.69;92743.06;5015003;28;20096;-76
2022/08/07 11:08:31;;;;;;;9.25;6.18;;;;;;;26.10;48.41;92743.91;5020284;28;20124;-76
2022/08/07 11:11:24;;;;;;;9.32;6.60;;;;;;;26.36;46.09;92740.16;5016726;28;20052;-76
2022/08/07 11:14:19;;;;;;;17.35;7.82;;;;;;;26.52;44.76;92731.75;5012229;28;20060;-76
2022/08/07 11:16:55;;;;;;;9.60;6.70;;;;;;;26.64;48.73;92742.19;5031518;28;20510;-76
2022/08/07 11:19:37;;;;;;;12.63;7.30;;;;;;;26.67;47.32;92728.00;5031482;28;20124;-76
2022/08/07 11:22:05;;;;;;;10.55;6.93;;;;;;;26.79;48.73;92724.94;5012886;28;20033;-77
2022/08/07 11:24:57;;;;;;;13.73;7.80;;;;;;;26.32;47.51;92725.94;5016673;28;20021;-76
2022/08/07 11:27:44;;;;;;;17.10;10.05;;;;;;;26.01;49.33;92722.81;5032863;28;20453;-76
2022/08/07 11:30:24;;;;;;;16.02;9.60;;;;;;;26.03;49.88;92717.84;5032754;28;20048;-76
2022/08/07 11:33:01;;;;;;;10.27;6.72;;;;;;;26.27;49.00;92731.69;5032501;28;20044;-76
2022/08/07 11:35:41;;;;;;;31.05;15.85;;;;;;;26.35;50.19;92715.25;5029918;28;20446;-76
2022/08/07 11:38:14;;;;;;;13.60;7.63;;;;;;;26.09;50.19;92716.31;5026686;28;20029;-76
2022/08/07 11:40:47;;;;;;;27.00;12.52;;;;;;;25.83;49.97;92703.91;5027180;28;20040;-76
2022/08/07 11:43:31;;;;;;;54.55;21.52;;;;;;;25.49;52.38;92712.19;5015105;28;20030;-76
2022/08/07 11:46:08;;;;;;;21.00;11.35;;;;;;;25.84;51.45;92710.81;5013008;28;20538;-76
2022/08/07 11:49:07;;;;;;;18.17;10.23;;;;;;;25.76;50.27;92703.91;5019758;28;20542;-76
2022/08/07 11:51:45;;;;;;;11.15;6.75;;;;;;;25.83;50.99;92708.53;5010077;28;20095;-76
2022/08/07 11:54:22;;;;;;;12.93;6.65;;;;;;;25.79;52.43;92703.13;5031369;28;20511;-76
2022/08/07 11:57:15;;;;;;;11.30;6.00;;;;;;;26.05;52.88;92706.72;5027981;28;20053;-76